KPWM/PWM METAR and TAF weather

Enter ICAO airport designator
Station Type Date Time Source
KPWM METAR 2019/10/23 13:14 UTC NOAA

KPWM 231314Z 32006KT 2SM +RA BR OVC005 12/11 A2976 RMK AO2 P0002 T01170106


Station Type Date Time Source
KPWM Decoded METAR 2019/10/23 13:14 UTC NOAA

PORTLAND INTERNATIONAL JETPORT, ME, United States (KPWM) 43-39N 70-18W 15M
Oct 23, 2019 - 09:14 AM EDT / 2019.10.23 1314 UTC
Wind: from the NW (320 degrees) at 7 MPH (6 KT):0
Visibility: 2 mile(s):0
Sky conditions: overcast
Weather: heavy rain; mist
Precipitation last hour: 0.02 inches
Temperature: 53.1 F (11.7 C)
Dew Point: 51.1 F (10.6 C)
Relative Humidity: 92%
Pressure (altimeter): 29.76 in. Hg (1007 hPa)
ob: KPWM 231314Z 32006KT 2SM +RA BR OVC005 12/11 A2976 RMK AO2 P0002 T01170106
cycle: 13

Station Type Date Time Source
KPWM TAF 2019/10/23 12:42 UTC NOAA

TAF KPWM 231140Z 2312/2412 VRB05KT 1SM RA OVC003
TEMPO 2312/2313 TSRA BKN005CB
FM231500 31006KT P6SM OVC008
FM231700 30008KT P6SM SCT015
FM232200 28007KT P6SM FEW035
FM240100 VRB04KT P6SM SKC

Example: see airport list